<?xml version="1.0" encoding="UTF-8" standalone="no" ?>
<gpx xmlns="http://www.topografix.com/GPX/1/1" xmlns:xsi="http://www.w3.org/2001/XMLSchema-instance" xsi:schemaLocation="http://www.topografix.com/GPX/1/1 http://www.topografix.com/GPX/1/1/gpx.xsd" version="1.1" creator="VisuGPX - https://www.visugpx.com">
  <metadata>
    <name>Vtt Montberon test 2</name>
  </metadata>
  <trk>
    <name><![CDATA[Vtt Montberon test 2]]></name>
    <extensions>
      <line xmlns="http://www.topografix.com/GPX/gpx_style/0/2">
        <color>0000FF</color>
        <width>4</width>
      </line>
    </extensions>
    <trkseg>
      <trkpt lat="43.72584" lon="1.46611">
        <ele>174.337961</ele>
        <time>2022-04-02T13:03:47.612Z</time>
      </trkpt>
      <trkpt lat="43.72608" lon="1.46567">
        <ele>174.337961</ele>
        <time>2022-04-02T13:04:33.943Z</time>
      </trkpt>
      <trkpt lat="43.7264" lon="1.46537">
        <ele>174.337961</ele>
        <time>2022-04-02T13:05:17.636Z</time>
      </trkpt>
      <trkpt lat="43.72683" lon="1.46473">
        <ele>175.452884</ele>
        <time>2022-04-02T13:06:28.876Z</time>
      </trkpt>
      <trkpt lat="43.72699" lon="1.46461">
        <ele>175.859728</ele>
        <time>2022-04-02T13:06:50.975Z</time>
      </trkpt>
      <trkpt lat="43.7273" lon="1.46437">
        <ele>176.618148</ele>
        <time>2022-04-02T13:07:29.396Z</time>
      </trkpt>
      <trkpt lat="43.72752" lon="1.46375">
        <ele>177.699901</ele>
        <time>2022-04-02T13:08:20.298Z</time>
      </trkpt>
      <trkpt lat="43.72774" lon="1.46345">
        <ele>178.180662</ele>
        <time>2022-04-02T13:08:51.109Z</time>
      </trkpt>
      <trkpt lat="43.72795" lon="1.46302">
        <ele>177.926853</ele>
        <time>2022-04-02T13:09:29.020Z</time>
      </trkpt>
      <trkpt lat="43.72797" lon="1.46281">
        <ele>177.828256</ele>
        <time>2022-04-02T13:09:44.036Z</time>
      </trkpt>
      <trkpt lat="43.72787" lon="1.4625">
        <ele>177.661832</ele>
        <time>2022-04-02T13:10:08.982Z</time>
      </trkpt>
      <trkpt lat="43.72794" lon="1.46231">
        <ele>177.560375</ele>
        <time>2022-04-02T13:10:24.351Z</time>
      </trkpt>
      <trkpt lat="43.72851" lon="1.46181">
        <ele>177.100764</ele>
        <time>2022-04-02T13:11:34.374Z</time>
      </trkpt>
      <trkpt lat="43.72878" lon="1.46149">
        <ele>176.930387</ele>
        <time>2022-04-02T13:12:10.820Z</time>
      </trkpt>
      <trkpt lat="43.72893" lon="1.46141">
        <ele>176.873677</ele>
        <time>2022-04-02T13:12:26.629Z</time>
      </trkpt>
      <trkpt lat="43.72915" lon="1.46102">
        <ele>176.741785</ele>
        <time>2022-04-02T13:13:03.114Z</time>
      </trkpt>
      <trkpt lat="43.72957" lon="1.46055">
        <ele>176.546207</ele>
        <time>2022-04-02T13:13:57.547Z</time>
      </trkpt>
      <trkpt lat="43.72946" lon="1.46037">
        <ele>176.48081</ele>
        <time>2022-04-02T13:14:15.785Z</time>
      </trkpt>
      <trkpt lat="43.72905" lon="1.45973">
        <ele>176.597668</ele>
        <time>2022-04-02T13:15:17.144Z</time>
      </trkpt>
      <trkpt lat="43.7295" lon="1.45914">
        <ele>177.150201</ele>
        <time>2022-04-02T13:16:20.246Z</time>
      </trkpt>
      <trkpt lat="43.72968" lon="1.45891">
        <ele>177.360013</ele>
        <time>2022-04-02T13:16:45.039Z</time>
      </trkpt>
      <trkpt lat="43.72963" lon="1.45853">
        <ele>177.609559</ele>
        <time>2022-04-02T13:17:14.915Z</time>
      </trkpt>
      <trkpt lat="43.72945" lon="1.45829">
        <ele>177.833306</ele>
        <time>2022-04-02T13:17:41.320Z</time>
      </trkpt>
      <trkpt lat="43.72942" lon="1.45808">
        <ele>177.979755</ele>
        <time>2022-04-02T13:17:57.654Z</time>
      </trkpt>
      <trkpt lat="43.7295" lon="1.45783">
        <ele>178.233833</ele>
        <time>2022-04-02T13:18:18.725Z</time>
      </trkpt>
      <trkpt lat="43.72999" lon="1.45712">
        <ele>179.140071</ele>
        <time>2022-04-02T13:19:33.463Z</time>
      </trkpt>
      <trkpt lat="43.73019" lon="1.45679">
        <ele>179.536435</ele>
        <time>2022-04-02T13:20:05.876Z</time>
      </trkpt>
      <trkpt lat="43.73027" lon="1.4565">
        <ele>179.822583</ele>
        <time>2022-04-02T13:20:29.013Z</time>
      </trkpt>
      <trkpt lat="43.73022" lon="1.45606">
        <ele>180.230969</ele>
        <time>2022-04-02T13:21:02.441Z</time>
      </trkpt>
      <trkpt lat="43.72956" lon="1.45545">
        <ele>180.753396</ele>
        <time>2022-04-02T13:22:25.234Z</time>
      </trkpt>
      <trkpt lat="43.72975" lon="1.45474">
        <ele>181.103163</ele>
        <time>2022-04-02T13:23:20.996Z</time>
      </trkpt>
      <trkpt lat="43.72969" lon="1.45464">
        <ele>181.16327</ele>
        <time>2022-04-02T13:23:30.486Z</time>
      </trkpt>
      <trkpt lat="43.72936" lon="1.45448">
        <ele>181.38722</ele>
        <time>2022-04-02T13:24:05.604Z</time>
      </trkpt>
      <trkpt lat="43.72934" lon="1.45435">
        <ele>181.40491</ele>
        <time>2022-04-02T13:24:15.229Z</time>
      </trkpt>
      <trkpt lat="43.72945" lon="1.45413">
        <ele>181.410088</ele>
        <time>2022-04-02T13:24:34.125Z</time>
      </trkpt>
      <trkpt lat="43.72907" lon="1.45394">
        <ele>181.421211</ele>
        <time>2022-04-02T13:25:14.024Z</time>
      </trkpt>
      <trkpt lat="43.72841" lon="1.45384">
        <ele>181.43981</ele>
        <time>2022-04-02T13:26:20.691Z</time>
      </trkpt>
      <trkpt lat="43.72818" lon="1.45371">
        <ele>181.446691</ele>
        <time>2022-04-02T13:26:45.382Z</time>
      </trkpt>
      <trkpt lat="43.72799" lon="1.4534">
        <ele>181.46326</ele>
        <time>2022-04-02T13:27:14.877Z</time>
      </trkpt>
      <trkpt lat="43.72793" lon="1.45287">
        <ele>181.526636</ele>
        <time>2022-04-02T13:27:53.840Z</time>
      </trkpt>
      <trkpt lat="43.72788" lon="1.45265">
        <ele>181.554336</ele>
        <time>2022-04-02T13:28:11.122Z</time>
      </trkpt>
      <trkpt lat="43.72781" lon="1.45245">
        <ele>181.580097</ele>
        <time>2022-04-02T13:28:27.230Z</time>
      </trkpt>
      <trkpt lat="43.72781" lon="1.45224">
        <ele>181.604244</ele>
        <time>2022-04-02T13:28:42.315Z</time>
      </trkpt>
      <trkpt lat="43.72816" lon="1.45118">
        <ele>181.741769</ele>
        <time>2022-04-02T13:30:07.413Z</time>
      </trkpt>
      <trkpt lat="43.72836" lon="1.45091">
        <ele>181.448311</ele>
        <time>2022-04-02T13:30:35.983Z</time>
      </trkpt>
      <trkpt lat="43.72849" lon="1.45073">
        <ele>181.239206</ele>
        <time>2022-04-02T13:30:54.408Z</time>
      </trkpt>
      <trkpt lat="43.72851" lon="1.45039">
        <ele>180.950336</ele>
        <time>2022-04-02T13:31:19.895Z</time>
      </trkpt>
      <trkpt lat="43.72876" lon="1.44979">
        <ele>180.363326</ele>
        <time>2022-04-02T13:32:11.791Z</time>
      </trkpt>
      <trkpt lat="43.72877" lon="1.44968">
        <ele>180.269321</ele>
        <time>2022-04-02T13:32:20.122Z</time>
      </trkpt>
      <trkpt lat="43.72884" lon="1.44957">
        <ele>180.148901</ele>
        <time>2022-04-02T13:32:30.661Z</time>
      </trkpt>
      <trkpt lat="43.72895" lon="1.44907">
        <ele>179.705662</ele>
        <time>2022-04-02T13:33:09.974Z</time>
      </trkpt>
      <trkpt lat="43.72891" lon="1.44903">
        <ele>179.649194</ele>
        <time>2022-04-02T13:33:15.122Z</time>
      </trkpt>
      <trkpt lat="43.72865" lon="1.44895">
        <ele>178.976523</ele>
        <time>2022-04-02T13:33:42.921Z</time>
      </trkpt>
      <trkpt lat="43.72854" lon="1.44898">
        <ele>178.668687</ele>
        <time>2022-04-02T13:33:56.050Z</time>
      </trkpt>
      <trkpt lat="43.72821" lon="1.44867">
        <ele>177.663343</ele>
        <time>2022-04-02T13:34:37.821Z</time>
      </trkpt>
      <trkpt lat="43.72775" lon="1.44896">
        <ele>176.364898</ele>
        <time>2022-04-02T13:35:31.696Z</time>
      </trkpt>
      <trkpt lat="43.7277" lon="1.44897">
        <ele>176.238291</ele>
        <time>2022-04-02T13:35:36.828Z</time>
      </trkpt>
      <trkpt lat="43.72767" lon="1.44892">
        <ele>176.112984</ele>
        <time>2022-04-02T13:35:42.328Z</time>
      </trkpt>
      <trkpt lat="43.72761" lon="1.44797">
        <ele>174.769843</ele>
        <time>2022-04-02T13:36:54.817Z</time>
      </trkpt>
      <trkpt lat="43.72755" lon="1.44786">
        <ele>174.662386</ele>
        <time>2022-04-02T13:37:05.132Z</time>
      </trkpt>
      <trkpt lat="43.72729" lon="1.44768">
        <ele>174.344165</ele>
        <time>2022-04-02T13:37:35.408Z</time>
      </trkpt>
      <trkpt lat="43.72704" lon="1.44662">
        <ele>173.473761</ele>
        <time>2022-04-02T13:38:57.513Z</time>
      </trkpt>
      <trkpt lat="43.72708" lon="1.44512">
        <ele>173.708082</ele>
        <time>2022-04-02T13:40:47.852Z</time>
      </trkpt>
      <trkpt lat="43.72715" lon="1.44497">
        <ele>173.805192</ele>
        <time>2022-04-02T13:41:01.997Z</time>
      </trkpt>
      <trkpt lat="43.72724" lon="1.44503">
        <ele>173.879033</ele>
        <time>2022-04-02T13:41:11.743Z</time>
      </trkpt>
      <trkpt lat="43.72744" lon="1.44496">
        <ele>174.033757</ele>
        <time>2022-04-02T13:41:32.708Z</time>
      </trkpt>
      <trkpt lat="43.72758" lon="1.44502">
        <ele>174.146047</ele>
        <time>2022-04-02T13:41:48.198Z</time>
      </trkpt>
      <trkpt lat="43.72771" lon="1.44513">
        <ele>174.261601</ele>
        <time>2022-04-02T13:42:03.751Z</time>
      </trkpt>
      <trkpt lat="43.72779" lon="1.44536">
        <ele>174.400926</ele>
        <time>2022-04-02T13:42:23.418Z</time>
      </trkpt>
      <trkpt lat="43.72826" lon="1.44574">
        <ele>175.408032</ele>
        <time>2022-04-02T13:43:20.009Z</time>
      </trkpt>
      <trkpt lat="43.72857" lon="1.44638">
        <ele>176.604674</ele>
        <time>2022-04-02T13:44:20.155Z</time>
      </trkpt>
      <trkpt lat="43.72873" lon="1.44657">
        <ele>177.056765</ele>
        <time>2022-04-02T13:44:42.768Z</time>
      </trkpt>
      <trkpt lat="43.7287" lon="1.44694">
        <ele>177.641152</ele>
        <time>2022-04-02T13:45:12.488Z</time>
      </trkpt>
      <trkpt lat="43.72894" lon="1.4474">
        <ele>178.553337</ele>
        <time>2022-04-02T13:45:57.137Z</time>
      </trkpt>
      <trkpt lat="43.72911" lon="1.44773">
        <ele>179.345352</ele>
        <time>2022-04-02T13:46:30.287Z</time>
      </trkpt>
      <trkpt lat="43.72914" lon="1.44822">
        <ele>180.282571</ele>
        <time>2022-04-02T13:47:09.579Z</time>
      </trkpt>
      <trkpt lat="43.72926" lon="1.4487">
        <ele>181.22801</ele>
        <time>2022-04-02T13:47:49.264Z</time>
      </trkpt>
      <trkpt lat="43.72928" lon="1.44924">
        <ele>182.26733</ele>
        <time>2022-04-02T13:48:33.116Z</time>
      </trkpt>
      <trkpt lat="43.72923" lon="1.4496">
        <ele>182.95769</ele>
        <time>2022-04-02T13:49:01.601Z</time>
      </trkpt>
      <trkpt lat="43.7291" lon="1.45004">
        <ele>183.232758</ele>
        <time>2022-04-02T13:49:38.064Z</time>
      </trkpt>
      <trkpt lat="43.72912" lon="1.4505">
        <ele>183.395133</ele>
        <time>2022-04-02T13:50:12.402Z</time>
      </trkpt>
      <trkpt lat="43.72898" lon="1.45094">
        <ele>183.567586</ele>
        <time>2022-04-02T13:50:47.915Z</time>
      </trkpt>
      <trkpt lat="43.72899" lon="1.45105">
        <ele>183.606835</ele>
        <time>2022-04-02T13:50:56.063Z</time>
      </trkpt>
      <trkpt lat="43.72911" lon="1.45227">
        <ele>183.864223</ele>
        <time>2022-04-02T13:52:25.759Z</time>
      </trkpt>
      <trkpt lat="43.7293" lon="1.45239">
        <ele>183.714505</ele>
        <time>2022-04-02T13:52:46.834Z</time>
      </trkpt>
      <trkpt lat="43.73029" lon="1.45228">
        <ele>182.997161</ele>
        <time>2022-04-02T13:54:27.958Z</time>
      </trkpt>
      <trkpt lat="43.73073" lon="1.45237">
        <ele>182.671859</ele>
        <time>2022-04-02T13:55:13.469Z</time>
      </trkpt>
      <trkpt lat="43.73099" lon="1.45254">
        <ele>182.665818</ele>
        <time>2022-04-02T13:55:42.084Z</time>
      </trkpt>
      <trkpt lat="43.73123" lon="1.45287">
        <ele>182.664633</ele>
        <time>2022-04-02T13:56:16.051Z</time>
      </trkpt>
      <trkpt lat="43.73098" lon="1.45324">
        <ele>182.663344</ele>
        <time>2022-04-02T13:56:53.231Z</time>
      </trkpt>
      <trkpt lat="43.73088" lon="1.4536">
        <ele>182.662374</ele>
        <time>2022-04-02T13:57:21.224Z</time>
      </trkpt>
      <trkpt lat="43.73061" lon="1.45388">
        <ele>182.661187</ele>
        <time>2022-04-02T13:57:55.559Z</time>
      </trkpt>
      <trkpt lat="43.73046" lon="1.4539">
        <ele>182.660668</ele>
        <time>2022-04-02T13:58:10.524Z</time>
      </trkpt>
      <trkpt lat="43.73018" lon="1.45379">
        <ele>182.398167</ele>
        <time>2022-04-02T13:58:40.213Z</time>
      </trkpt>
      <trkpt lat="43.72998" lon="1.45395">
        <ele>182.154095</ele>
        <time>2022-04-02T13:59:03.491Z</time>
      </trkpt>
      <trkpt lat="43.73014" lon="1.45407">
        <ele>181.960045</ele>
        <time>2022-04-02T13:59:22.079Z</time>
      </trkpt>
      <trkpt lat="43.73054" lon="1.45454">
        <ele>181.406699</ele>
        <time>2022-04-02T14:00:15.190Z</time>
      </trkpt>
      <trkpt lat="43.73056" lon="1.45481">
        <ele>181.1999</ele>
        <time>2022-04-02T14:00:35.443Z</time>
      </trkpt>
      <trkpt lat="43.73052" lon="1.45507">
        <ele>180.995549</ele>
        <time>2022-04-02T14:00:55.518Z</time>
      </trkpt>
      <trkpt lat="43.73079" lon="1.45563">
        <ele>179.667318</ele>
        <time>2022-04-02T14:01:46.918Z</time>
      </trkpt>
      <trkpt lat="43.73091" lon="1.4561">
        <ele>178.17367</ele>
        <time>2022-04-02T14:02:26.154Z</time>
      </trkpt>
      <trkpt lat="43.73095" lon="1.45707">
        <ele>175.235608</ele>
        <time>2022-04-02T14:03:43.348Z</time>
      </trkpt>
      <trkpt lat="43.73091" lon="1.45731">
        <ele>174.50943</ele>
        <time>2022-04-02T14:04:02.788Z</time>
      </trkpt>
      <trkpt lat="43.73099" lon="1.45741">
        <ele>174.062419</ele>
        <time>2022-04-02T14:04:14.219Z</time>
      </trkpt>
      <trkpt lat="43.73116" lon="1.45768">
        <ele>173.076498</ele>
        <time>2022-04-02T14:04:42.695Z</time>
      </trkpt>
      <trkpt lat="43.73119" lon="1.45811">
        <ele>172.165281</ele>
        <time>2022-04-02T14:05:16.903Z</time>
      </trkpt>
      <trkpt lat="43.73137" lon="1.45859">
        <ele>171.027876</ele>
        <time>2022-04-02T14:05:59.942Z</time>
      </trkpt>
      <trkpt lat="43.73134" lon="1.4588">
        <ele>170.586751</ele>
        <time>2022-04-02T14:06:16.216Z</time>
      </trkpt>
      <trkpt lat="43.73099" lon="1.45949">
        <ele>168.819222</ele>
        <time>2022-04-02T14:07:21.229Z</time>
      </trkpt>
      <trkpt lat="43.73082" lon="1.45974">
        <ele>168.087201</ele>
        <time>2022-04-02T14:07:48.046Z</time>
      </trkpt>
      <trkpt lat="43.73064" lon="1.4602">
        <ele>168.62375</ele>
        <time>2022-04-02T14:08:26.999Z</time>
      </trkpt>
      <trkpt lat="43.73064" lon="1.46021">
        <ele>168.626438</ele>
        <time>2022-04-02T14:08:27.317Z</time>
      </trkpt>
      <trkpt lat="43.73066" lon="1.46034">
        <ele>168.780028</ele>
        <time>2022-04-02T14:08:37.694Z</time>
      </trkpt>
      <trkpt lat="43.73041" lon="1.46035">
        <ele>169.156221</ele>
        <time>2022-04-02T14:09:04.630Z</time>
      </trkpt>
      <trkpt lat="43.73037" lon="1.4605">
        <ele>169.331863</ele>
        <time>2022-04-02T14:09:16.354Z</time>
      </trkpt>
      <trkpt lat="43.73013" lon="1.46047">
        <ele>169.701609</ele>
        <time>2022-04-02T14:09:43.205Z</time>
      </trkpt>
      <trkpt lat="43.72995" lon="1.46045">
        <ele>169.976228</ele>
        <time>2022-04-02T14:10:02.052Z</time>
      </trkpt>
      <trkpt lat="43.72964" lon="1.4602">
        <ele>170.526445</ele>
        <time>2022-04-02T14:10:40.860Z</time>
      </trkpt>
      <trkpt lat="43.72988" lon="1.45994">
        <ele>171.108393</ele>
        <time>2022-04-02T14:11:13.458Z</time>
      </trkpt>
      <trkpt lat="43.73009" lon="1.45944">
        <ele>172.145025</ele>
        <time>2022-04-02T14:12:00.636Z</time>
      </trkpt>
      <trkpt lat="43.73047" lon="1.45898">
        <ele>173.391484</ele>
        <time>2022-04-02T14:12:56.438Z</time>
      </trkpt>
      <trkpt lat="43.73076" lon="1.45831">
        <ele>174.804109</ele>
        <time>2022-04-02T14:13:57.164Z</time>
      </trkpt>
      <trkpt lat="43.73082" lon="1.45791">
        <ele>175.365612</ele>
        <time>2022-04-02T14:14:28.524Z</time>
      </trkpt>
      <trkpt lat="43.73077" lon="1.45757">
        <ele>175.565549</ele>
        <time>2022-04-02T14:14:55.044Z</time>
      </trkpt>
      <trkpt lat="43.73033" lon="1.45736">
        <ele>175.936686</ele>
        <time>2022-04-02T14:15:43.075Z</time>
      </trkpt>
      <trkpt lat="43.73004" lon="1.4584">
        <ele>176.577395</ele>
        <time>2022-04-02T14:17:05.985Z</time>
      </trkpt>
      <trkpt lat="43.72984" lon="1.45874">
        <ele>176.419144</ele>
        <time>2022-04-02T14:17:37.541Z</time>
      </trkpt>
      <trkpt lat="43.72968" lon="1.45891">
        <ele>175.961699</ele>
        <time>2022-04-02T14:17:59.045Z</time>
      </trkpt>
      <trkpt lat="43.7295" lon="1.45914">
        <ele>175.446259</ele>
        <time>2022-04-02T14:18:23.174Z</time>
      </trkpt>
      <trkpt lat="43.72905" lon="1.45973">
        <ele>174.088862</ele>
        <time>2022-04-02T14:19:28.460Z</time>
      </trkpt>
      <trkpt lat="43.72946" lon="1.46037">
        <ele>172.713008</ele>
        <time>2022-04-02T14:20:34.063Z</time>
      </trkpt>
      <trkpt lat="43.72957" lon="1.46055">
        <ele>171.838176</ele>
        <time>2022-04-02T14:20:53.228Z</time>
      </trkpt>
      <trkpt lat="43.72988" lon="1.46085">
        <ele>170.015528</ele>
        <time>2022-04-02T14:21:34.122Z</time>
      </trkpt>
      <trkpt lat="43.73" lon="1.46096">
        <ele>169.319752</ele>
        <time>2022-04-02T14:21:49.773Z</time>
      </trkpt>
      <trkpt lat="43.73005" lon="1.46089">
        <ele>168.999158</ele>
        <time>2022-04-02T14:21:57.371Z</time>
      </trkpt>
      <trkpt lat="43.73034" lon="1.46094">
        <ele>167.534012</ele>
        <time>2022-04-02T14:22:30.475Z</time>
      </trkpt>
      <trkpt lat="43.73061" lon="1.46077">
        <ele>166.083083</ele>
        <time>2022-04-02T14:23:03.569Z</time>
      </trkpt>
      <trkpt lat="43.73071" lon="1.46112">
        <ele>164.75743</ele>
        <time>2022-04-02T14:23:33.625Z</time>
      </trkpt>
      <trkpt lat="43.73077" lon="1.46098">
        <ele>164.167267</ele>
        <time>2022-04-02T14:23:46.976Z</time>
      </trkpt>
      <trkpt lat="43.73097" lon="1.46083">
        <ele>163.136958</ele>
        <time>2022-04-02T14:24:11.742Z</time>
      </trkpt>
      <trkpt lat="43.73126" lon="1.46128">
        <ele>161.129427</ele>
        <time>2022-04-02T14:25:01.103Z</time>
      </trkpt>
      <trkpt lat="43.73145" lon="1.46148">
        <ele>160.048311</ele>
        <time>2022-04-02T14:25:27.574Z</time>
      </trkpt>
      <trkpt lat="43.73154" lon="1.46167">
        <ele>159.323041</ele>
        <time>2022-04-02T14:25:44.836Z</time>
      </trkpt>
      <trkpt lat="43.73207" lon="1.46241">
        <ele>155.87834</ele>
        <time>2022-04-02T14:27:06.339Z</time>
      </trkpt>
      <trkpt lat="43.73222" lon="1.46235">
        <ele>155.604693</ele>
        <time>2022-04-02T14:27:24.523Z</time>
      </trkpt>
      <trkpt lat="43.73243" lon="1.46186">
        <ele>155.030985</ele>
        <time>2022-04-02T14:28:06.977Z</time>
      </trkpt>
      <trkpt lat="43.73251" lon="1.4618">
        <ele>154.898881</ele>
        <time>2022-04-02T14:28:16.506Z</time>
      </trkpt>
      <trkpt lat="43.73271" lon="1.46199">
        <ele>154.55894</ele>
        <time>2022-04-02T14:28:41.898Z</time>
      </trkpt>
      <trkpt lat="43.73285" lon="1.46234">
        <ele>154.145045</ele>
        <time>2022-04-02T14:29:12.058Z</time>
      </trkpt>
      <trkpt lat="43.73299" lon="1.46259">
        <ele>153.820139</ele>
        <time>2022-04-02T14:29:35.139Z</time>
      </trkpt>
      <trkpt lat="43.73308" lon="1.46265">
        <ele>153.680818</ele>
        <time>2022-04-02T14:29:45.575Z</time>
      </trkpt>
      <trkpt lat="43.73351" lon="1.46272">
        <ele>153.689646</ele>
        <time>2022-04-02T14:30:29.063Z</time>
      </trkpt>
      <trkpt lat="43.73363" lon="1.46282">
        <ele>154.103094</ele>
        <time>2022-04-02T14:30:45.186Z</time>
      </trkpt>
      <trkpt lat="43.73365" lon="1.46303">
        <ele>154.517706</ele>
        <time>2022-04-02T14:31:01.144Z</time>
      </trkpt>
      <trkpt lat="43.73303" lon="1.46437">
        <ele>157.718957</ele>
        <time>2022-04-02T14:33:08.888Z</time>
      </trkpt>
      <trkpt lat="43.73287" lon="1.46435">
        <ele>158.171885</ele>
        <time>2022-04-02T14:33:27.820Z</time>
      </trkpt>
      <trkpt lat="43.73274" lon="1.46423">
        <ele>158.815232</ele>
        <time>2022-04-02T14:33:45.072Z</time>
      </trkpt>
      <trkpt lat="43.7326" lon="1.46423">
        <ele>159.471565</ele>
        <time>2022-04-02T14:34:01.127Z</time>
      </trkpt>
      <trkpt lat="43.73246" lon="1.46431">
        <ele>160.222238</ele>
        <time>2022-04-02T14:34:20.255Z</time>
      </trkpt>
      <trkpt lat="43.73219" lon="1.46478">
        <ele>162.29726</ele>
        <time>2022-04-02T14:35:11.997Z</time>
      </trkpt>
      <trkpt lat="43.73183" lon="1.465">
        <ele>164.163396</ele>
        <time>2022-04-02T14:35:58.163Z</time>
      </trkpt>
      <trkpt lat="43.73162" lon="1.46472">
        <ele>165.530459</ele>
        <time>2022-04-02T14:36:31.913Z</time>
      </trkpt>
      <trkpt lat="43.73147" lon="1.46467">
        <ele>166.273508</ele>
        <time>2022-04-02T14:36:49.757Z</time>
      </trkpt>
      <trkpt lat="43.73132" lon="1.4647">
        <ele>166.934269</ele>
        <time>2022-04-02T14:37:07.193Z</time>
      </trkpt>
      <trkpt lat="43.73121" lon="1.46472">
        <ele>167.270356</ele>
        <time>2022-04-02T14:37:19.576Z</time>
      </trkpt>
      <trkpt lat="43.73079" lon="1.46455">
        <ele>168.676223</ele>
        <time>2022-04-02T14:38:09.648Z</time>
      </trkpt>
      <trkpt lat="43.7306" lon="1.46461">
        <ele>169.275161</ele>
        <time>2022-04-02T14:38:31.090Z</time>
      </trkpt>
      <trkpt lat="43.73025" lon="1.46499">
        <ele>170.703794</ele>
        <time>2022-04-02T14:39:21.962Z</time>
      </trkpt>
      <trkpt lat="43.72994" lon="1.46558">
        <ele>172.354481</ele>
        <time>2022-04-02T14:40:18.191Z</time>
      </trkpt>
      <trkpt lat="43.7295" lon="1.46604">
        <ele>172.072466</ele>
        <time>2022-04-02T14:41:15.240Z</time>
      </trkpt>
      <trkpt lat="43.72942" lon="1.46629">
        <ele>171.885679</ele>
        <time>2022-04-02T14:41:35.070Z</time>
      </trkpt>
      <trkpt lat="43.7291" lon="1.46674">
        <ele>171.451158</ele>
        <time>2022-04-02T14:42:21.780Z</time>
      </trkpt>
      <trkpt lat="43.72878" lon="1.46653">
        <ele>171.105178</ele>
        <time>2022-04-02T14:43:00.727Z</time>
      </trkpt>
      <trkpt lat="43.72858" lon="1.46678">
        <ele>170.849691</ele>
        <time>2022-04-02T14:43:29.101Z</time>
      </trkpt>
      <trkpt lat="43.72827" lon="1.4669">
        <ele>170.284223</ele>
        <time>2022-04-02T14:44:03.739Z</time>
      </trkpt>
      <trkpt lat="43.72796" lon="1.46726">
        <ele>169.567334</ele>
        <time>2022-04-02T14:44:45.062Z</time>
      </trkpt>
      <trkpt lat="43.72782" lon="1.46732">
        <ele>169.306888</ele>
        <time>2022-04-02T14:45:01.269Z</time>
      </trkpt>
      <trkpt lat="43.72815" lon="1.46805">
        <ele>168.192085</ele>
        <time>2022-04-02T14:46:04.831Z</time>
      </trkpt>
      <trkpt lat="43.72867" lon="1.46767">
        <ele>167.563948</ele>
        <time>2022-04-02T14:47:04.185Z</time>
      </trkpt>
      <trkpt lat="43.72896" lon="1.4676">
        <ele>167.50968</ele>
        <time>2022-04-02T14:47:34.606Z</time>
      </trkpt>
      <trkpt lat="43.72917" lon="1.46788">
        <ele>167.456211</ele>
        <time>2022-04-02T14:48:05.614Z</time>
      </trkpt>
      <trkpt lat="43.72974" lon="1.46814">
        <ele>167.346692</ele>
        <time>2022-04-02T14:49:08.043Z</time>
      </trkpt>
      <trkpt lat="43.72982" lon="1.4684">
        <ele>167.309457</ele>
        <time>2022-04-02T14:49:28.508Z</time>
      </trkpt>
      <trkpt lat="43.72976" lon="1.46859">
        <ele>167.275107</ele>
        <time>2022-04-02T14:49:44.883Z</time>
      </trkpt>
      <trkpt lat="43.7298" lon="1.46871">
        <ele>167.0417</ele>
        <time>2022-04-02T14:49:54.851Z</time>
      </trkpt>
      <trkpt lat="43.73023" lon="1.46853">
        <ele>165.936829</ele>
        <time>2022-04-02T14:50:41.588Z</time>
      </trkpt>
      <trkpt lat="43.73033" lon="1.46855">
        <ele>165.686499</ele>
        <time>2022-04-02T14:50:52.351Z</time>
      </trkpt>
      <trkpt lat="43.73054" lon="1.46873">
        <ele>165.069555</ele>
        <time>2022-04-02T14:51:18.764Z</time>
      </trkpt>
      <trkpt lat="43.73081" lon="1.46871">
        <ele>164.404063</ele>
        <time>2022-04-02T14:51:47.693Z</time>
      </trkpt>
      <trkpt lat="43.73068" lon="1.46896">
        <ele>163.8612</ele>
        <time>2022-04-02T14:52:10.532Z</time>
      </trkpt>
      <trkpt lat="43.73067" lon="1.46916">
        <ele>163.49944</ele>
        <time>2022-04-02T14:52:26.112Z</time>
      </trkpt>
      <trkpt lat="43.73041" lon="1.46933">
        <ele>162.786662</ele>
        <time>2022-04-02T14:52:56.153Z</time>
      </trkpt>
      <trkpt lat="43.7302" lon="1.46947">
        <ele>162.101689</ele>
        <time>2022-04-02T14:53:20.254Z</time>
      </trkpt>
      <trkpt lat="43.72988" lon="1.46997">
        <ele>160.678343</ele>
        <time>2022-04-02T14:54:12.003Z</time>
      </trkpt>
      <trkpt lat="43.72973" lon="1.46967">
        <ele>159.898435</ele>
        <time>2022-04-02T14:54:39.965Z</time>
      </trkpt>
      <trkpt lat="43.7296" lon="1.46956">
        <ele>159.448853</ele>
        <time>2022-04-02T14:54:56.446Z</time>
      </trkpt>
      <trkpt lat="43.72912" lon="1.46937">
        <ele>157.971831</ele>
        <time>2022-04-02T14:55:49.451Z</time>
      </trkpt>
      <trkpt lat="43.72934" lon="1.4697">
        <ele>157.088855</ele>
        <time>2022-04-02T14:56:24.751Z</time>
      </trkpt>
      <trkpt lat="43.72921" lon="1.46976">
        <ele>156.746722</ele>
        <time>2022-04-02T14:56:39.228Z</time>
      </trkpt>
      <trkpt lat="43.72917" lon="1.46988">
        <ele>156.504508</ele>
        <time>2022-04-02T14:56:49.928Z</time>
      </trkpt>
      <trkpt lat="43.72911" lon="1.46999">
        <ele>156.272246</ele>
        <time>2022-04-02T14:57:00.222Z</time>
      </trkpt>
      <trkpt lat="43.72891" lon="1.47008">
        <ele>155.759773</ele>
        <time>2022-04-02T14:57:21.732Z</time>
      </trkpt>
      <trkpt lat="43.72884" lon="1.47017">
        <ele>155.525884</ele>
        <time>2022-04-02T14:57:32.445Z</time>
      </trkpt>
      <trkpt lat="43.72912" lon="1.47068">
        <ele>154.39604</ele>
        <time>2022-04-02T14:58:21.395Z</time>
      </trkpt>
      <trkpt lat="43.72922" lon="1.47107">
        <ele>153.671487</ele>
        <time>2022-04-02T14:58:52.895Z</time>
      </trkpt>
      <trkpt lat="43.72791" lon="1.46955">
        <ele>152.844713</ele>
        <time>2022-04-02T15:01:44.345Z</time>
      </trkpt>
      <trkpt lat="43.72768" lon="1.46919">
        <ele>152.785141</ele>
        <time>2022-04-02T15:02:20.431Z</time>
      </trkpt>
      <trkpt lat="43.72747" lon="1.46876">
        <ele>152.785141</ele>
        <time>2022-04-02T15:02:58.460Z</time>
      </trkpt>
      <trkpt lat="43.72731" lon="1.46842">
        <ele>152.785141</ele>
        <time>2022-04-02T15:03:28.193Z</time>
      </trkpt>
      <trkpt lat="43.72714" lon="1.46819">
        <ele>152.785141</ele>
        <time>2022-04-02T15:03:52.168Z</time>
      </trkpt>
      <trkpt lat="43.72636" lon="1.4675">
        <ele>152.785141</ele>
        <time>2022-04-02T15:05:25.261Z</time>
      </trkpt>
      <trkpt lat="43.72604" lon="1.4674">
        <ele>152.785141</ele>
        <time>2022-04-02T15:05:58.038Z</time>
      </trkpt>
    </trkseg>
  </trk>
</gpx>